Time;durP1;ratioP1;P1;durP2;ratioP2;P2;SDS_P1;SDS_P2;PMS_P1;PMS_P2;Temp;Humidity;BMP_temperature;BMP_pressure;BME280_temperature;BME280_humidity;BME280_pressure;Samples;Min_cycle;Max_cycle;Signal;HPM_P1;HPM_P2
2023/09/06 00:01:06;;;;;;;;;;;;;;;14.12;100.00;96079.66;10435369;28;1546;-78
2023/09/06 00:06:10;;;;;;;;;;;;;;;14.04;100.00;96073.78;10436687;28;1973;-79
2023/09/06 00:11:13;;;;;;;;;;;;;;;14.07;100.00;96075.94;10432651;28;1336;-78
2023/09/06 00:16:16;;;;;;;;;;;;;;;13.94;100.00;96071.22;10438006;28;2627;-78
2023/09/06 00:21:19;;;;;;;;;;;;;;;14.00;100.00;96064.66;10432761;28;1490;-79
2023/09/06 00:26:21;;;;;;;;;;;;;;;13.83;100.00;96058.91;10435648;28;1910;-78
2023/09/06 00:31:24;;;;;;;;;;;;;;;13.72;100.00;96058.19;10430947;28;1448;-78
2023/09/06 00:36:29;;;;;;;;;;;;;;;13.75;100.00;96057.66;10431473;28;1388;-80
2023/09/06 00:41:31;;;;;;;;;;;;;;;13.75;100.00;96068.47;10432736;28;1267;-79
2023/09/06 00:46:34;;;;;;;;;;;;;;;13.49;100.00;96056.31;10426206;28;1918;-79
2023/09/06 00:51:37;;;;;;;;;;;;;;;13.24;100.00;96068.13;10434388;28;1247;-79
2023/09/06 00:56:39;;;;;;;;;;;;;;;13.03;100.00;96066.63;10422906;28;5647;-78
2023/09/06 01:01:42;;;;;;;;;;;;;;;13.35;100.00;96066.94;10422690;28;1482;-80
2023/09/06 01:06:44;;;;;;;;;;;;;;;13.67;100.00;96062.84;10431008;28;1890;-79
2023/09/06 01:11:47;;;;;;;;;;;;;;;13.56;100.00;96069.47;10433665;28;1557;-78
2023/09/06 01:16:49;;;;;;;;;;;;;;;13.49;100.00;96070.59;10431389;28;2824;-78
2023/09/06 01:21:52;;;;;;;;;;;;;;;13.41;100.00;96063.09;10423067;28;1475;-78
2023/09/06 01:26:54;;;;;;;;;;;;;;;13.41;100.00;96059.59;10424726;28;1906;-79
2023/09/06 01:31:56;;;;;;;;;;;;;;;13.50;100.00;96055.19;10428812;28;1485;-78
2023/09/06 01:36:59;;;;;;;;;;;;;;;13.49;100.00;96051.69;10433877;28;1122;-78
2023/09/06 01:42:02;;;;;;;;;;;;;;;13.38;100.00;96055.56;10417239;28;1514;-76
2023/09/06 01:47:05;;;;;;;;;;;;;;;13.43;100.00;96047.44;10424109;28;1906;-80
2023/09/06 01:52:08;;;;;;;;;;;;;;;13.43;100.00;96044.75;10439820;28;1314;-77
2023/09/06 01:57:10;;;;;;;;;;;;;;;13.31;100.00;96043.50;10432539;28;5193;-78
2023/09/06 02:02:12;;;;;;;;;;;;;;;13.18;100.00;96042.25;10431531;28;1469;-79
2023/09/06 02:07:15;;;;;;;;;;;;;;;13.06;100.00;96039.91;10427971;28;1922;-79
2023/09/06 02:12:18;;;;;;;;;;;;;;;13.07;100.00;96041.50;10424127;28;2302;-79
2023/09/06 02:17:20;;;;;;;;;;;;;;;13.09;100.00;96038.53;10423580;28;1505;-79
2023/09/06 02:22:23;;;;;;;;;;;;;;;13.04;100.00;96044.78;10436448;28;1094;-79
2023/09/06 02:27:25;;;;;;;;;;;;;;;13.03;100.00;96042.34;10435777;28;1914;-76
2023/09/06 02:32:31;;;;;;;;;;;;;;;13.03;100.00;96039.66;10437469;28;1501;-77
2023/09/06 02:37:33;;;;;;;;;;;;;;;12.98;100.00;96045.91;10436084;28;1430;-78
2023/09/06 02:42:38;;;;;;;;;;;;;;;13.04;100.00;96043.94;10428871;28;1285;-79
2023/09/06 02:47:47;;;;;;;;;;;;;;;13.03;100.00;96045.03;10427045;28;1910;-77
2023/09/06 02:52:52;;;;;;;;;;;;;;;12.94;100.00;96042.97;10437289;28;5175;-77
2023/09/06 02:57:56;;;;;;;;;;;;;;;12.87;100.00;96044.38;10428507;28;1647;-77
2023/09/06 03:03:05;;;;;;;;;;;;;;;12.91;100.00;96051.59;10425532;28;1545;-78
2023/09/06 03:08:08;;;;;;;;;;;;;;;12.71;100.00;96054.44;10414407;28;2679;-76
2023/09/06 03:13:10;;;;;;;;;;;;;;;12.54;100.00;96060.22;10434996;28;1419;-77
2023/09/06 03:18:13;;;;;;;;;;;;;;;12.62;100.00;96064.22;10429404;28;1625;-78
2023/09/06 03:23:18;;;;;;;;;;;;;;;12.61;100.00;96066.13;10440866;28;1184;-78
2023/09/06 03:28:21;;;;;;;;;;;;;;;12.51;100.00;96068.88;10437198;28;1973;-79
2023/09/06 03:33:24;;;;;;;;;;;;;;;12.53;100.00;96071.28;10431190;28;1595;-78
2023/09/06 03:38:26;;;;;;;;;;;;;;;12.58;100.00;96072.06;10438447;28;1317;-79
2023/09/06 03:43:32;;;;;;;;;;;;;;;12.50;100.00;96074.53;10436809;28;1098;-78
2023/09/06 03:48:35;;;;;;;;;;;;;;;12.36;100.00;96077.03;10437359;28;1910;-78
2023/09/06 03:53:39;;;;;;;;;;;;;;;12.29;100.00;96080.03;10438972;28;5152;-78
2023/09/06 03:58:41;;;;;;;;;;;;;;;12.25;100.00;96073.59;10429782;28;1371;-78
2023/09/06 04:03:46;;;;;;;;;;;;;;;12.25;100.00;96070.09;10436176;28;2393;-77
2023/09/06 04:08:50;;;;;;;;;;;;;;;12.38;100.00;96067.59;10442047;28;1914;-77
2023/09/06 04:13:55;;;;;;;;;;;;;;;12.27;100.00;96068.72;10445194;28;1403;-77
2023/09/06 04:18:58;;;;;;;;;;;;;;;12.11;100.00;96084.16;10435137;28;983;-77
2023/09/06 04:24:00;;;;;;;;;;;;;;;11.96;100.00;96078.84;10439862;28;1305;-78
2023/09/06 04:29:03;;;;;;;;;;;;;;;11.95;100.00;96087.16;10434439;28;1976;-79
2023/09/06 04:34:05;;;;;;;;;;;;;;;12.03;100.00;96086.63;10426377;28;1102;-77
2023/09/06 04:39:08;;;;;;;;;;;;;;;12.11;100.00;96094.13;10430349;28;1511;-78
2023/09/06 04:44:11;;;;;;;;;;;;;;;12.21;100.00;96091.38;10435000;28;1444;-77
2023/09/06 04:49:13;;;;;;;;;;;;;;;12.23;100.00;96097.31;10434102;28;1988;-78
2023/09/06 04:54:16;;;;;;;;;;;;;;;12.37;100.00;96092.94;10431846;28;5130;-77
2023/09/06 04:59:18;;;;;;;;;;;;;;;12.61;100.00;96105.78;10428206;28;2440;-77
2023/09/06 05:04:23;;;;;;;;;;;;;;;12.81;100.00;96108.34;10437262;28;1490;-78
2023/09/06 05:09:25;;;;;;;;;;;;;;;12.92;100.00;96109.91;10434828;28;1993;-78
2023/09/06 05:14:29;;;;;;;;;;;;;;;13.09;100.00;96108.69;10426866;28;1448;-78
2023/09/06 05:19:31;;;;;;;;;;;;;;;13.20;100.00;96116.47;10434154;28;1056;-79
2023/09/06 05:24:34;;;;;;;;;;;;;;;13.41;100.00;96114.41;10429973;28;1359;-78
2023/09/06 05:29:36;;;;;;;;;;;;;;;13.79;100.00;96106.50;10427454;28;1939;-79
2023/09/06 05:34:39;;;;;;;;;;;;;;;14.04;100.00;96118.94;10433482;28;1237;-79
2023/09/06 05:39:41;;;;;;;;;;;;;;;14.27;100.00;96123.56;10426732;28;1357;-79
2023/09/06 05:44:44;;;;;;;;;;;;;;;14.29;100.00;96121.34;10423819;28;1368;-79
2023/09/06 05:49:46;;;;;;;;;;;;;;;14.43;100.00;96117.94;10434830;28;1922;-77
2023/09/06 05:54:49;;;;;;;;;;;;;;;14.23;100.00;96125.22;10428216;28;5228;-79
2023/09/06 05:59:54;;;;;;;;;;;;;;;14.35;100.00;96132.94;10430332;28;1515;-78
2023/09/06 06:04:57;;;;;;;;;;;;;;;14.34;100.00;96128.63;10428790;28;1273;-77
2023/09/06 06:09:59;;;;;;;;;;;;;;;14.50;100.00;96132.75;10423129;28;1914;-77
2023/09/06 06:15:03;;;;;;;;;;;;;;;14.25;100.00;96133.88;10428022;28;1436;-77
2023/09/06 06:20:06;;;;;;;;;;;;;;;14.44;100.00;96144.72;10434130;28;1063;-78
2023/09/06 06:25:10;;;;;;;;;;;;;;;14.70;100.00;96136.31;10432554;28;1439;-78
2023/09/06 06:30:14;;;;;;;;;;;;;;;14.81;100.00;96148.59;10424648;28;1985;-78
2023/09/06 06:35:18;;;;;;;;;;;;;;;14.77;100.00;96144.91;10427241;28;1114;-78
2023/09/06 06:40:21;;;;;;;;;;;;;;;15.25;100.00;96147.44;10437455;28;1408;-78
2023/09/06 06:45:24;;;;;;;;;;;;;;;15.29;100.00;96138.44;10428734;28;1313;-79
2023/09/06 06:50:26;;;;;;;;;;;;;;;15.59;100.00;96129.03;10434025;28;2467;-78
2023/09/06 06:55:28;;;;;;;;;;;;;;;16.19;100.00;96117.41;10432796;28;5145;-78
2023/09/06 07:00:31;;;;;;;;;;;;;;;16.00;100.00;96136.47;10450300;28;1538;-79
2023/09/06 07:05:37;;;;;;;;;;;;;;;16.47;100.00;96127.16;10454890;28;1141;-76
2023/09/06 07:10:40;;;;;;;;;;;;;;;17.12;100.00;96128.81;10456136;28;1981;-79
2023/09/06 07:15:42;;;;;;;;;;;;;;;17.27;100.00;96114.06;10453776;28;1388;-77
2023/09/06 07:20:45;;;;;;;;;;;;;;;17.52;100.00;96115.34;10448625;28;1226;-78
2023/09/06 07:25:48;;;;;;;;;;;;;;;17.41;100.00;96119.44;10449074;28;1452;-77
2023/09/06 07:30:51;;;;;;;;;;;;;;;17.69;100.00;96120.13;10451220;28;1985;-77
2023/09/06 07:35:53;;;;;;;;;;;;;;;17.44;100.00;96118.81;10448995;28;1055;-78
2023/09/06 07:40:55;;;;;;;;;;;;;;;17.64;100.00;96123.75;10444683;28;1427;-77
2023/09/06 07:45:58;;;;;;;;;;;;;;;18.15;100.00;96125.19;10448465;28;1348;-78
2023/09/06 07:56:19;;;;;;;;;;;;;;;18.04;100.00;96126.56;10429196;28;5102;-77
2023/09/06 08:01:22;;;;;;;;;;;;;;;18.64;100.00;96126.03;10436707;28;1297;-77
2023/09/06 08:06:31;;;;;;;;;;;;;;;18.35;100.00;96121.91;10436504;28;1229;-77
2023/09/06 08:11:34;;;;;;;;;;;;;;;18.98;100.00;96119.84;10440551;28;1891;-79
2023/09/06 08:16:38;;;;;;;;;;;;;;;19.16;100.00;96123.41;10438731;28;1420;-78
2023/09/06 08:21:45;;;;;;;;;;;;;;;19.46;100.00;96127.06;10411729;28;1383;-78
2023/09/06 08:26:53;;;;;;;;;;;;;;;19.46;100.00;96129.81;10435674;28;1427;-79
2023/09/06 08:31:58;;;;;;;;;;;;;;;19.64;100.00;96127.91;10438860;28;1396;-78
2023/09/06 08:37:04;;;;;;;;;;;;;;;19.78;100.00;96133.97;10433965;28;1166;-79
2023/09/06 08:42:09;;;;;;;;;;;;;;;19.91;100.00;96132.19;10430358;28;1461;-78
2023/09/06 08:47:13;;;;;;;;;;;;;;;19.97;100.00;96130.88;10432997;28;2552;-79
2023/09/06 08:57:58;;;;;;;;;;;;;;;19.87;100.00;96134.78;10431719;28;1554;-77
2023/09/06 09:03:06;;;;;;;;;;;;;;;19.89;100.00;96135.25;10432314;28;1382;-78
2023/09/06 09:08:09;;;;;;;;;;;;;;;20.16;100.00;96144.16;10429237;28;1922;-77
2023/09/06 09:13:16;;;;;;;;;;;;;;;20.30;100.00;96144.78;10431379;28;1229;-78
2023/09/06 09:18:19;;;;;;;;;;;;;;;20.32;100.00;96130.78;10452472;28;1744;-79
2023/09/06 09:23:26;;;;;;;;;;;;;;;21.01;100.00;96130.47;10428297;28;1474;-79
2023/09/06 09:28:32;;;;;;;;;;;;;;;20.99;100.00;96128.06;10462297;28;1914;-78
2023/09/06 09:33:39;;;;;;;;;;;;;;;21.03;100.00;96126.25;10414244;28;1816;-79
2023/09/06 09:38:54;;;;;;;;;;;;;;;20.98;100.00;96126.44;10433656;28;1403;-79
2023/09/06 09:44:07;;;;;;;;;;;;;;;20.98;100.00;96128.38;10419288;28;1393;-79
2023/09/06 09:49:12;;;;;;;;;;;;;;;21.01;100.00;96131.25;10435458;28;2049;-79
2023/09/06 09:54:17;;;;;;;;;;;;;;;21.28;100.00;96124.50;10436174;28;1389;-79
2023/09/06 09:59:32;;;;;;;;;;;;;;;21.35;100.00;96123.16;10434736;28;1364;-79
2023/09/06 10:09:56;;;;;;;;;;;;;;;21.50;100.00;96123.38;10433153;28;1914;-80
2023/09/06 10:15:01;;;;;;;;;;;;;;;21.79;100.00;96127.91;10425358;28;1368;-79
2023/09/06 10:20:12;;;;;;;;;;;;;;;21.78;100.00;96125.53;10447986;28;1259;-78
2023/09/06 10:25:18;;;;;;;;;;;;;;;21.67;100.00;96127.06;10434387;28;1384;-79
2023/09/06 10:30:28;;;;;;;;;;;;;;;21.71;100.00;96126.06;10431726;28;1910;-78
2023/09/06 10:35:34;;;;;;;;;;;;;;;21.96;100.00;96118.75;10425727;28;2287;-77
2023/09/06 10:40:46;;;;;;;;;;;;;;;22.00;100.00;96118.84;10440569;28;1445;-78
2023/09/06 10:45:59;;;;;;;;;;;;;;;21.80;100.00;96125.97;10416615;28;1388;-78
2023/09/06 10:51:06;;;;;;;;;;;;;;;22.02;100.00;96114.66;10416410;28;1899;-79
2023/09/06 10:56:10;;;;;;;;;;;;;;;21.96;100.00;96116.00;10426756;28;5197;-78
2023/09/06 11:01:17;;;;;;;;;;;;;;;22.21;100.00;96116.09;10427087;28;1360;-78
2023/09/06 11:06:27;;;;;;;;;;;;;;;22.03;100.00;96115.44;10424011;28;1411;-79
2023/09/06 11:11:37;;;;;;;;;;;;;;;21.95;100.00;96113.59;10433602;28;1914;-78
2023/09/06 11:16:41;;;;;;;;;;;;;;;22.20;100.00;96104.31;10408181;28;1403;-78
2023/09/06 11:21:47;;;;;;;;;;;;;;;22.03;100.00;96109.97;10434728;28;990;-78
2023/09/06 11:26:57;;;;;;;;;;;;;;;21.94;100.00;96112.00;10430307;28;1069;-79
2023/09/06 11:32:02;;;;;;;;;;;;;;;21.91;100.00;96113.47;10418879;28;2504;-78
2023/09/06 11:37:06;;;;;;;;;;;;;;;21.97;100.00;96103.91;10424199;28;1349;-79
2023/09/06 11:42:11;;;;;;;;;;;;;;;22.11;100.00;96107.16;10418604;28;1373;-80
2023/09/06 11:47:15;;;;;;;;;;;;;;;22.21;100.00;96105.13;10436229;28;1439;-79
2023/09/06 11:52:20;;;;;;;;;;;;;;;22.06;100.00;96098.34;10439526;28;5140;-79
2023/09/06 11:57:30;;;;;;;;;;;;;;;22.23;100.00;96095.44;10427471;28;1492;-78
2023/09/06 12:02:34;;;;;;;;;;;;;;;22.44;100.00;96087.09;10429219;28;1348;-78
2023/09/06 12:07:46;;;;;;;;;;;;;;;22.57;100.00;96085.97;10431187;28;1466;-78
2023/09/06 12:13:11;;;;;;;;;;;;;;;22.83;100.00;96076.59;10436625;28;1094;-78
2023/09/06 12:18:31;;;;;;;;;;;;;;;22.98;100.00;96078.66;10429029;28;1372;-79
2023/09/06 12:23:40;;;;;;;;;;;;;;;23.06;100.00;96063.22;10412020;28;1427;-78
2023/09/06 12:28:47;;;;;;;;;;;;;;;23.15;100.00;96067.41;10435345;28;1918;-78
2023/09/06 12:33:52;;;;;;;;;;;;;;;23.49;100.00;96062.50;10458969;28;1276;-79
2023/09/06 12:38:56;;;;;;;;;;;;;;;23.41;100.00;96057.94;10435988;28;1384;-78
2023/09/06 12:44:06;;;;;;;;;;;;;;;23.54;100.00;96065.00;10429487;28;1452;-79
2023/09/06 12:49:11;;;;;;;;;;;;;;;23.70;100.00;96054.09;10438089;28;1906;-78
2023/09/06 12:54:17;;;;;;;;;;;;;;;23.96;86.16;96048.88;10430114;28;5156;-78
2023/09/06 12:59:27;;;;;;;;;;;;;;;23.78;79.19;96052.31;10434214;28;1277;-78
2023/09/06 13:04:31;;;;;;;;;;;;;;;23.84;75.12;96045.41;10443598;28;1099;-78
2023/09/06 13:09:37;;;;;;;;;;;;;;;23.87;78.90;96047.47;10435072;28;1922;-78
2023/09/06 13:14:42;;;;;;;;;;;;;;;23.90;73.47;96041.28;10443126;28;1564;-78
2023/09/06 13:19:47;;;;;;;;;;;;;;;24.00;79.57;96033.31;10441685;28;961;-78
2023/09/06 13:24:55;;;;;;;;;;;;;;;23.99;80.11;96033.69;10442077;28;1320;-77
2023/09/06 13:30:00;;;;;;;;;;;;;;;23.96;85.92;96023.38;10445215;28;1977;-78
2023/09/06 13:35:06;;;;;;;;;;;;;;;24.22;84.77;96014.63;10427418;28;1408;-77
2023/09/06 13:40:27;;;;;;;;;;;;;;;24.13;89.99;96017.56;10432517;28;1588;-77
2023/09/06 13:45:30;;;;;;;;;;;;;;;24.05;86.53;96010.28;10436513;28;1387;-79
2023/09/06 13:50:35;;;;;;;;;;;;;;;24.21;84.92;96013.03;10426992;28;2022;-78
2023/09/06 13:55:41;;;;;;;;;;;;;;;24.27;79.42;96000.63;10446461;28;5089;-79
2023/09/06 14:00:47;;;;;;;;;;;;;;;24.24;80.27;95999.38;10424695;28;1356;-80
2023/09/06 14:05:50;;;;;;;;;;;;;;;24.37;77.98;95996.56;10433349;28;1072;-78
2023/09/06 14:10:56;;;;;;;;;;;;;;;24.50;74.73;95998.06;10430988;28;1910;-79
2023/09/06 14:16:06;;;;;;;;;;;;;;;24.53;79.79;95995.38;10423799;28;1426;-79
2023/09/06 14:21:20;;;;;;;;;;;;;;;24.42;76.28;95991.56;10420432;28;2347;-79
2023/09/06 14:26:24;;;;;;;;;;;;;;;24.51;84.73;95977.66;10429021;28;1502;-78
2023/09/06 14:31:27;;;;;;;;;;;;;;;24.44;91.46;95986.53;10432715;28;2001;-79
2023/09/06 14:36:32;;;;;;;;;;;;;;;24.31;93.71;95984.22;10426982;28;1337;-78
2023/09/06 14:41:39;;;;;;;;;;;;;;;24.27;96.75;95973.94;10430364;28;1452;-78
2023/09/06 14:46:48;;;;;;;;;;;;;;;24.36;97.42;95971.03;10423265;28;1476;-78
2023/09/06 14:51:56;;;;;;;;;;;;;;;24.40;96.74;95976.59;10433494;28;1973;-78
2023/09/06 14:57:04;;;;;;;;;;;;;;;24.51;96.81;95983.16;10412102;28;5535;-78
2023/09/06 15:02:09;;;;;;;;;;;;;;;24.37;97.02;95978.13;10427388;28;1353;-78
2023/09/06 15:07:13;;;;;;;;;;;;;;;24.31;93.23;95978.72;10458327;28;1213;-78
2023/09/06 15:12:17;;;;;;;;;;;;;;;24.37;90.78;95974.59;10429376;28;1914;-78
2023/09/06 15:17:21;;;;;;;;;;;;;;;24.16;93.57;95975.63;10428671;28;2426;-79
2023/09/06 15:22:25;;;;;;;;;;;;;;;24.20;94.70;95968.28;10431108;28;1472;-79
2023/09/06 15:27:41;;;;;;;;;;;;;;;24.10;95.34;95968.81;10431990;28;1041;-78
2023/09/06 15:32:47;;;;;;;;;;;;;;;24.00;91.86;95974.84;10441334;28;1979;-77
2023/09/06 15:37:53;;;;;;;;;;;;;;;23.83;94.82;95972.47;10436976;28;1454;-78
2023/09/06 15:42:59;;;;;;;;;;;;;;;23.79;97.17;95968.81;10426957;28;1179;-78
2023/09/06 15:48:03;;;;;;;;;;;;;;;23.68;97.75;95974.84;10429173;28;1341;-78
2023/09/06 15:53:07;;;;;;;;;;;;;;;23.62;99.77;95970.78;10433244;28;5263;-78
2023/09/06 15:58:12;;;;;;;;;;;;;;;23.55;100.00;95973.31;10435950;28;1091;-78
2023/09/06 16:03:15;;;;;;;;;;;;;;;23.50;100.00;95968.06;10433441;28;1353;-78
2023/09/06 16:08:22;;;;;;;;;;;;;;;23.42;100.00;95966.28;10439489;28;1345;-80
2023/09/06 16:13:29;;;;;;;;;;;;;;;23.31;100.00;95965.22;10424797;28;1991;-78
2023/09/06 16:18:36;;;;;;;;;;;;;;;23.28;100.00;95982.34;10425798;28;1349;-79
2023/09/06 16:23:42;;;;;;;;;;;;;;;23.23;100.00;95983.41;10419156;28;1456;-79
2023/09/06 16:28:46;;;;;;;;;;;;;;;23.19;100.00;95979.75;10445285;28;1404;-79
2023/09/06 16:33:50;;;;;;;;;;;;;;;23.04;100.00;95978.59;10431381;28;1919;-78
2023/09/06 16:38:53;;;;;;;;;;;;;;;22.90;100.00;95978.16;10422896;28;1502;-78
2023/09/06 16:43:58;;;;;;;;;;;;;;;22.84;100.00;95979.50;10431468;28;1489;-79
2023/09/06 16:49:05;;;;;;;;;;;;;;;22.66;100.00;95976.28;10435303;28;1252;-79
2023/09/06 16:54:11;;;;;;;;;;;;;;;22.56;100.00;95974.00;10438933;28;5085;-77
2023/09/06 16:59:24;;;;;;;;;;;;;;;22.41;100.00;95985.69;10448333;28;1316;-79
2023/09/06 17:04:33;;;;;;;;;;;;;;;22.20;100.00;95991.25;10442167;28;1252;-80
2023/09/06 17:09:38;;;;;;;;;;;;;;;22.10;100.00;95979.63;10434504;28;2418;-78
2023/09/06 17:14:41;;;;;;;;;;;;;;;21.99;100.00;95978.47;10428874;28;1608;-79
2023/09/06 17:19:47;;;;;;;;;;;;;;;21.78;100.00;95980.50;10429346;28;1888;-77
2023/09/06 17:24:59;;;;;;;;;;;;;;;21.64;100.00;95982.78;10426120;28;1531;-79
2023/09/06 17:30:08;;;;;;;;;;;;;;;21.52;100.00;95984.34;10429531;28;1910;-80
2023/09/06 17:35:26;;;;;;;;;;;;;;;21.33;100.00;95984.06;10428455;28;1558;-79
2023/09/06 17:40:31;;;;;;;;;;;;;;;21.04;100.00;95988.47;10421088;28;1404;-80
2023/09/06 17:45:37;;;;;;;;;;;;;;;20.82;100.00;95988.84;10428860;28;1349;-79
2023/09/06 17:50:49;;;;;;;;;;;;;;;20.56;100.00;95982.78;10419632;28;1914;-79
2023/09/06 17:55:55;;;;;;;;;;;;;;;20.40;100.00;95988.75;10430108;28;1434;-78
2023/09/06 18:01:02;;;;;;;;;;;;;;;20.23;100.00;95992.41;10423746;28;1293;-78
2023/09/06 18:06:13;;;;;;;;;;;;;;;20.09;100.00;95991.03;10430080;28;2500;-80
2023/09/06 18:11:21;;;;;;;;;;;;;;;20.08;100.00;95989.44;10433099;28;1962;-79
2023/09/06 18:21:47;;;;;;;;;;;;;;;19.67;100.00;95999.09;10428814;28;1134;-78
2023/09/06 18:26:51;;;;;;;;;;;;;;;19.57;100.00;96002.94;10431715;28;1720;-79
2023/09/06 18:32:10;;;;;;;;;;;;;;;19.38;100.00;96007.94;10432249;28;1971;-79
2023/09/06 18:37:14;;;;;;;;;;;;;;;19.36;100.00;96016.47;10426985;28;1414;-79
2023/09/06 18:42:26;;;;;;;;;;;;;;;19.12;100.00;96016.97;10411000;28;1328;-79
2023/09/06 18:47:42;;;;;;;;;;;;;;;18.95;100.00;96016.16;10428170;28;1381;-79
2023/09/06 18:52:49;;;;;;;;;;;;;;;18.78;100.00;96020.50;10427440;28;5109;-78
2023/09/06 18:57:56;;;;;;;;;;;;;;;18.74;100.00;96024.97;10426971;28;1567;-80
2023/09/06 19:03:12;;;;;;;;;;;;;;;18.48;100.00;96021.41;10418623;28;2166;-79
2023/09/06 19:08:18;;;;;;;;;;;;;;;18.34;100.00;96027.78;10424283;28;1549;-78
2023/09/06 19:13:27;;;;;;;;;;;;;;;18.35;100.00;96031.31;10426532;28;2332;-78
2023/09/06 19:18:37;;;;;;;;;;;;;;;18.32;100.00;96032.75;10426834;28;1566;-79
2023/09/06 19:23:44;;;;;;;;;;;;;;;18.19;100.00;96025.47;10428209;28;1372;-80
2023/09/06 19:28:52;;;;;;;;;;;;;;;18.15;100.00;96029.16;10417508;28;1383;-79
2023/09/06 19:33:58;;;;;;;;;;;;;;;17.94;100.00;96023.47;10424929;28;2075;-79
2023/09/06 19:39:01;;;;;;;;;;;;;;;17.86;100.00;96024.25;10451945;28;1316;-79
2023/09/06 19:44:09;;;;;;;;;;;;;;;17.78;100.00;96025.81;10428675;28;1480;-78
2023/09/06 19:49:13;;;;;;;;;;;;;;;17.70;100.00;96021.94;10433997;28;1134;-78
2023/09/06 19:59:35;;;;;;;;;;;;;;;17.49;100.00;96024.34;10421923;28;2296;-79
2023/09/06 20:04:38;;;;;;;;;;;;;;;17.40;100.00;96011.84;10409190;28;1477;-78
2023/09/06 20:09:49;;;;;;;;;;;;;;;17.45;100.00;96019.88;10448608;28;1320;-79
2023/09/06 20:14:54;;;;;;;;;;;;;;;17.41;100.00;96010.72;10433657;28;1914;-79
2023/09/06 20:20:05;;;;;;;;;;;;;;;17.30;100.00;96007.47;10430265;28;1208;-79
2023/09/06 20:25:11;;;;;;;;;;;;;;;17.18;100.00;96021.63;10441268;28;1494;-80
2023/09/06 20:30:15;;;;;;;;;;;;;;;17.06;100.00;96029.53;10431450;28;1914;-80
2023/09/06 20:35:22;;;;;;;;;;;;;;;17.16;100.00;96023.84;10420063;28;1444;-79
2023/09/06 20:40:29;;;;;;;;;;;;;;;17.06;100.00;96024.09;10430035;28;1366;-79
2023/09/06 20:45:36;;;;;;;;;;;;;;;17.08;100.00;96021.88;10433215;28;1404;-79
2023/09/06 20:50:40;;;;;;;;;;;;;;;16.89;100.00;96021.25;10427694;28;1969;-79
2023/09/06 20:55:43;;;;;;;;;;;;;;;16.81;100.00;96027.41;10429544;28;5147;-79
2023/09/06 21:00:48;;;;;;;;;;;;;;;16.77;100.00;96019.06;10432333;28;1514;-79
2023/09/06 21:05:53;;;;;;;;;;;;;;;16.70;100.00;96024.13;10429395;28;1337;-78
2023/09/06 21:10:57;;;;;;;;;;;;;;;16.69;100.00;96012.44;10430978;28;1976;-80
2023/09/06 21:16:11;;;;;;;;;;;;;;;16.87;100.00;96005.28;10408203;28;1408;-77
2023/09/06 21:21:18;;;;;;;;;;;;;;;16.81;100.00;96000.28;10427622;28;1019;-79
2023/09/06 21:26:30;;;;;;;;;;;;;;;16.77;100.00;96012.84;10425265;28;1305;-79
2023/09/06 21:31:38;;;;;;;;;;;;;;;16.66;100.00;96004.09;10420161;28;1993;-79
2023/09/06 21:36:44;;;;;;;;;;;;;;;16.45;100.00;96015.41;10428232;28;1250;-79
2023/09/06 21:42:02;;;;;;;;;;;;;;;16.46;100.00;96013.50;10426784;28;1503;-79
2023/09/06 21:47:05;;;;;;;;;;;;;;;16.36;100.00;96019.16;10432533;28;1406;-78
2023/09/06 21:52:15;;;;;;;;;;;;;;;16.27;100.00;96024.47;10423480;28;2637;-79
2023/09/06 21:57:19;;;;;;;;;;;;;;;16.27;100.00;96019.06;10430476;28;1540;-78
2023/09/06 22:02:28;;;;;;;;;;;;;;;16.33;100.00;96019.75;10422993;28;1586;-79
2023/09/06 22:07:34;;;;;;;;;;;;;;;16.29;100.00;96025.00;10422342;28;1471;-80
2023/09/06 22:12:39;;;;;;;;;;;;;;;16.38;100.00;96017.75;10427639;28;1926;-79
2023/09/06 22:17:43;;;;;;;;;;;;;;;16.21;100.00;96029.19;10431012;28;1568;-79
2023/09/06 22:22:50;;;;;;;;;;;;;;;16.13;100.00;96029.91;10424204;28;1425;-78
2023/09/06 22:27:57;;;;;;;;;;;;;;;15.99;100.00;96031.84;10421653;28;1584;-79
2023/09/06 22:33:07;;;;;;;;;;;;;;;15.83;100.00;96034.03;10410320;28;1918;-78
2023/09/06 22:38:11;;;;;;;;;;;;;;;15.85;100.00;96031.03;10413322;28;1550;-78
2023/09/06 22:43:17;;;;;;;;;;;;;;;16.12;100.00;96020.19;10427065;28;1471;-78
2023/09/06 22:48:24;;;;;;;;;;;;;;;16.17;100.00;96022.78;10446582;28;2253;-78
2023/09/06 22:53:40;;;;;;;;;;;;;;;16.29;100.00;96024.19;10410421;28;5097;-78
2023/09/06 22:58:48;;;;;;;;;;;;;;;16.25;100.00;96024.00;10459038;28;1351;-78
2023/09/06 23:03:53;;;;;;;;;;;;;;;16.29;100.00;96019.56;10432420;28;1156;-78
2023/09/06 23:09:00;;;;;;;;;;;;;;;16.32;100.00;96018.16;10407102;28;1325;-78
2023/09/06 23:14:15;;;;;;;;;;;;;;;16.27;100.00;96023.69;10444921;28;1921;-77
2023/09/06 23:19:28;;;;;;;;;;;;;;;16.14;100.00;96031.53;10428836;28;1051;-78
2023/09/06 23:24:35;;;;;;;;;;;;;;;16.17;100.00;96035.56;10428426;28;1371;-79
2023/09/06 23:29:49;;;;;;;;;;;;;;;16.06;100.00;96029.53;10424544;28;1317;-78
2023/09/06 23:34:54;;;;;;;;;;;;;;;16.04;100.00;96029.03;10419748;28;1914;-77
2023/09/06 23:40:05;;;;;;;;;;;;;;;16.07;100.00;96028.41;10432685;28;1055;-78
2023/09/06 23:45:09;;;;;;;;;;;;;;;16.02;100.00;96033.13;10429050;28;1641;-77
2023/09/06 23:50:14;;;;;;;;;;;;;;;15.87;100.00;96034.25;10432242;28;1231;-80
2023/09/06 23:55:18;;;;;;;;;;;;;;;15.79;100.00;96037.66;10432750;28;1989;-79
